Terminal Aerodrome Forecast
Issued by NWS Grand Rapids, MI

Home | Current Version | Previous Version | Text Only | Print | Product List | Glossary On
Versions: 1 2 3 4 5 6 7 8 9 10 11 12 13 14 15 16 17 18 19 20 21 22 23 24 25 26 27 28 29 30 31 32 33 34 35 36 37
000
FTUS43 KGRR 242203 AAC
TAFGRR
TAF AMD
KGRR 242203Z 2422/2518 07006KT 6SM -RA BR OVC004
     FM242300 10008KT P6SM VCTS FEW005 BKN015 OVC035CB
      TEMPO 2423/2501 2SM TSRA BR OVC007CB
     FM250100 22008KT 4SM -DZ BR OVC004
     FM250300 25009KT 6SM -DZ BR OVC008
     FM250900 30014G26KT 2SM -SN BR OVC012=

USA.gov is the U.S. government's official web portal to all federal, state and local government web resources and services.